Latest Weather Observations for Swan Island

IDT60801

Issued at 12:01 am EST Sunday 31 May 2015 (issued every 30 minutes, with the page automatically refreshed every 10 minutes)

About weather observations | Map of weather stations | Latest weather observations for TAS | Other Formats
Station Details ID: 092123 Name: SWAN ISLAND Lat: -40.73 Lon: 148.12 Height: 15.0 m
Data from the previous 72 hours. | See also: Recent months at Swan Island
Date/Time
EST
Temp
°C
App
Temp
°C
Dew
Point
Rel
Hum
%
Delta-T
°C
Wind Press
QNH
hPa
Press
MSL
hPa
Rain
since 9 am
mm
Dir
 
Spd
km/h
Gust
km/h
Spd
kts
Gust
kts
31/12:00am 12.3 - - - - WNW 43 61 23 33 1005.8 1005.8 2.4
 
Date/Time
EST
Temp
°C
App
Temp
°C
Dew
Point
Rel
Hum
%
Delta-T
°C
Wind Press
QNH
hPa
Press
MSL
hPa
Rain
since 9 am
mm
Dir
 
Spd
km/h
Gust
km/h
Spd
kts
Gust
kts
30/11:30pm 11.0 - - - - WNW 50 76 27 41 1006.3 1006.3 2.4
30/11:04pm 13.2 - - - - WNW 44 65 24 35 1006.3 1006.3 1.8
30/11:00pm 13.1 - - - - WNW 44 61 24 33 1006.3 1006.3 1.8
30/10:32pm 12.7 - - - - WNW 46 65 25 35 1006.5 1006.5 1.8
30/10:30pm 12.6 - - - - WNW 44 63 24 34 1006.5 1006.5 1.8
30/10:02pm 12.7 - - - - WNW 46 65 25 35 1006.7 1006.7 1.8
30/10:00pm 12.8 - - - - WNW 46 63 25 34 1006.8 1006.8 1.8
30/09:34pm 13.1 - - - - WNW 39 61 21 33 1007.2 1007.2 1.6
30/09:30pm 13.1 - - - - WNW 37 52 20 28 1007.3 1007.3 1.6
30/09:16pm 12.8 - - - - WNW 43 61 23 33 1007.2 1007.2 1.6
30/09:00pm 13.0 - - - - WNW 48 67 26 36 1007.0 1007.0 1.6
30/08:30pm 12.9 - - - - WNW 48 72 26 39 1007.1 1007.1 1.6
30/08:05pm 12.4 - - - - WNW 43 61 23 33 1007.4 1007.4 1.6
30/08:00pm 12.4 - - - - WNW 43 57 23 31 1007.4 1007.4 1.6
30/07:30pm 11.6 - - - - W 41 74 22 40 1007.3 1007.3 1.6
30/07:00pm 13.1 - - - - WNW 46 69 25 37 1006.6 1006.6 1.0
30/06:30pm 13.0 - - - - WNW 48 69 26 37 1006.2 1006.2 1.0
30/06:00pm 12.9 - - - - WNW 48 69 26 37 1005.7 1005.7 1.0
30/05:30pm 12.1 - - - - WNW 56 74 30 40 1005.5 1005.5 1.0
30/05:00pm 12.0 - - - - WNW 50 72 27 39 1005.5 1005.5 0.8
30/04:30pm 13.5 - - - - WNW 61 85 33 46 1005.1 1005.1 0.4
30/04:00pm 13.7 - - - - WNW 54 76 29 41 1005.0 1005.0 0.4
30/03:30pm 13.5 - - - - NW 65 85 35 46 1005.6 1005.6 0.4
30/03:00pm 13.2 - - - - NW 63 87 34 47 1005.7 1005.7 0.4
30/02:30pm 12.9 - - - - NW 63 85 34 46 1006.0 1006.0 0.4
30/02:00pm 13.2 - - - - NW 56 78 30 42 1006.4 1006.4 0.0
30/01:30pm 13.3 - - - - NW 56 80 30 43 1006.9 1006.9 0.0
30/01:00pm 13.3 - - - - NW 57 80 31 43 1007.5 1007.5 0.0
30/12:30pm 13.9 - - - - NW 56 80 30 43 1007.8 1007.8 0.0
30/12:00pm 14.2 - - - - NW 57 78 31 42 1008.3 1008.3 0.0
30/11:30am 13.9 - - - - NW 59 83 32 45 1009.1 1009.1 0.0
30/11:00am 13.9 - - - - NW 56 80 30 43 1009.8 1009.8 0.0
30/10:30am 13.3 - - - - NW 56 78 30 42 1010.5 1010.5 0.0
30/10:00am 13.3 - - - - NW 54 80 29 43 1011.0 1010.9 0.0
30/09:35am 13.0 - - - - NW 52 70 28 38 1011.1 1011.0 0.0
30/09:30am 12.8 - - - - NW 50 69 27 37 1011.3 1011.2 0.0
30/09:01am 12.5 - - - - NW 50 69 27 37 1011.9 1011.8 0.0
30/09:00am 12.5 - - - - NW 52 69 28 37 1011.9 1011.8 1.4
30/08:30am 13.1 - - - - NW 46 69 25 37 1012.0 1011.9 1.4
30/08:12am 12.8 - - - - NW 43 69 23 37 1012.2 1012.1 1.4
30/08:00am 12.8 - - - - NW 48 65 26 35 1012.5 1012.4 1.4
30/07:39am 13.1 - - - - NW 44 63 24 34 1012.5 1012.4 1.4
30/07:30am 13.1 - - - - NW 44 61 24 33 1012.5 1012.4 1.4
30/07:02am 12.9 - - - - NW 43 61 23 33 1012.8 1012.7 1.4
30/07:00am 12.9 - - - - NW 44 61 24 33 1012.7 1012.6 1.4
30/06:30am 13.0 - - - - NW 39 57 21 31 1013.0 1012.9 1.4
30/06:28am 12.9 - - - - NW 39 57 21 31 1012.9 1012.8 1.4
30/05:30am 12.7 - - - - NW 41 56 22 30 1013.4 1013.3 1.4
30/05:00am 12.9 - - - - NW 41 57 22 31 1013.5 1013.4 1.4
30/04:30am 12.5 - - - - WNW 41 57 22 31 1013.5 1013.4 1.4
30/04:00am 12.1 - - - - NW 39 52 21 28 1013.9 1013.8 1.4
30/03:48am 11.6 - - - - WNW 32 50 17 27 1014.1 1014.1 1.4
30/03:30am 12.6 - - - - NW 37 48 20 26 1014.3 1014.3 0.8
30/03:00am 13.2 - - - - NW 39 50 21 27 1014.7 1014.7 0.8
30/02:30am 13.1 - - - - WNW 35 54 19 29 1015.1 1015.1 0.8
30/02:25am 12.9 - - - - WNW 33 54 18 29 1015.2 1015.2 0.8
30/02:00am 12.9 - - - - WNW 37 48 20 26 1015.4 1015.4 0.8
30/01:30am 13.0 - - - - WNW 33 44 18 24 1015.7 1015.7 0.8
30/01:00am 12.8 - - - - WNW 32 46 17 25 1015.9 1015.9 0.8
30/12:30am 13.0 - - - - WNW 33 46 18 25 1016.1 1016.1 0.8
30/12:00am 12.8 - - - - WNW 32 44 17 24 1016.4 1016.4 0.8
 
Date/Time
EST
Temp
°C
App
Temp
°C
Dew
Point
Rel
Hum
%
Delta-T
°C
Wind Press
QNH
hPa
Press
MSL
hPa
Rain
since 9 am
mm
Dir
 
Spd
km/h
Gust
km/h
Spd
kts
Gust
kts
29/11:30pm 12.4 - - - - WNW 33 46 18 25 1016.7 1016.7 0.8
29/11:00pm 12.0 - - - - WNW 28 37 15 20 1016.8 1016.8 0.8
29/10:30pm 12.3 - - - - WNW 26 39 14 21 1016.9 1016.9 0.6
29/10:17pm 12.0 - - - - WNW 30 48 16 26 1017.2 1017.2 0.6
29/10:00pm 12.6 - - - - WNW 30 43 16 23 1017.1 1017.1 0.6
29/09:30pm 12.2 - - - - WNW 35 46 19 25 1017.2 1017.2 0.6
29/09:00pm 11.9 - - - - WNW 28 46 15 25 1017.3 1017.3 0.6
29/08:30pm 11.9 - - - - WNW 26 41 14 22 1017.3 1017.3 0.6
29/08:00pm 12.3 - - - - WNW 28 46 15 25 1017.2 1017.2 0.6
29/07:51pm 12.3 - - - - WNW 28 46 15 25 1017.2 1017.2 0.6
29/07:30pm 12.2 - - - - WNW 26 43 14 23 1016.9 1016.9 0.6
29/07:00pm 11.9 - - - - WNW 35 48 19 26 1016.6 1016.6 0.6
29/06:38pm 11.6 - - - - WNW 28 46 15 25 1016.7 1016.7 0.6
29/06:30pm 11.5 - - - - WNW 30 43 16 23 1016.6 1016.6 0.6
29/06:00pm 11.3 - - - - WNW 30 39 16 21 1016.5 1016.5 0.4
29/05:43pm 12.1 - - - - W 28 48 15 26 1016.4 1016.4 0.2
29/05:30pm 12.4 - - - - WNW 33 48 18 26 1016.2 1016.2 0.2
29/05:13pm 12.1 - - - - WNW 32 50 17 27 1016.3 1016.3 0.2
29/05:00pm 12.1 - - - - WNW 32 48 17 26 1016.1 1016.1 0.2
29/04:37pm 12.5 - - - - WNW 33 54 18 29 1015.8 1015.8 0.2
29/04:30pm 12.3 - - - - WNW 33 44 18 24 1015.8 1015.8 0.2
29/04:00pm 12.8 - - - - WNW 33 50 18 27 1015.7 1015.7 0.2
29/03:30pm 12.7 - - - - WNW 37 52 20 28 1015.4 1015.4 0.2
29/03:00pm 12.7 - - - - WNW 33 63 18 34 1015.4 1015.4 0.2
29/02:59pm 12.8 - - - - WNW 32 63 17 34 1015.4 1015.4 0.2
29/02:30pm 13.4 - - - - WNW 32 48 17 26 1015.2 1015.2 0.2
29/02:00pm 13.7 - - - - WNW 37 50 20 27 1015.2 1015.2 0.2
29/01:45pm 12.9 - - - - W 32 54 17 29 1015.2 1015.2 0.2
29/01:30pm 12.5 - - - - W 32 46 17 25 1015.3 1015.3 0.2
29/01:00pm 13.4 - - - - W 32 43 17 23 1015.3 1015.3 0.2
29/12:30pm 12.9 - - - - W 39 57 21 31 1015.4 1015.4 0.2
29/12:00pm 13.1 - - - - W 35 59 19 32 1015.4 1015.4 0.2
29/11:53am 12.7 - - - - W 37 59 20 32 1015.3 1015.3 0.2
29/11:30am 12.7 - - - - W 37 52 20 28 1015.2 1015.2 0.2
29/11:13am 12.7 - - - - W 35 63 19 34 1015.2 1015.2 0.2
29/11:00am 12.5 - - - - W 41 57 22 31 1015.3 1015.3 0.2
29/10:30am 12.3 - - - - W 39 59 21 32 1015.1 1015.1 0.2
29/10:01am 11.5 - - - - W 41 61 22 33 1015.1 1015.1 0.2
29/10:00am 11.3 - - - - W 43 61 23 33 1015.1 1015.1 0.2
29/09:48am 11.6 - - - - W 33 56 18 30 1015.1 1015.1 0.0
29/09:30am 11.1 - - - - W 33 50 18 27 1014.8 1014.8 0.0
29/09:00am 10.9 - - - - W 33 46 18 25 1014.6 1014.6 4.2
29/08:30am 10.4 - - - - WSW 30 44 16 24 1014.7 1014.7 4.2
29/08:00am 11.4 - - - - W 43 63 23 34 1014.1 1014.1 4.2
29/07:53am 11.3 - - - - W 39 63 21 34 1014.0 1014.0 4.2
29/07:30am 11.3 - - - - W 41 59 22 32 1013.7 1013.6 4.2
29/07:21am 11.1 - - - - W 37 56 20 30 1013.6 1013.5 4.2
29/07:00am 10.9 - - - - W 41 57 22 31 1013.5 1013.4 4.2
29/06:30am 10.6 - - - - W 37 52 20 28 1013.4 1013.3 4.2
29/06:00am 10.0 - - - - W 35 50 19 27 1013.3 1013.2 4.2
29/05:30am 8.8 - - - - W 48 69 26 37 1013.2 1013.1 4.2
29/05:02am 11.5 - - - - WNW 35 54 19 29 1012.3 1012.2 3.4
29/05:00am 11.6 - - - - W 35 54 19 29 1012.3 1012.2 3.4
29/04:33am 11.2 - - - - W 39 59 21 32 1012.4 1012.3 3.4
29/04:30am 11.8 - - - - W 41 57 22 31 1012.1 1012.0 3.4
29/04:00am 11.5 - - - - W 37 57 20 31 1011.7 1011.6 3.4
29/03:30am 11.5 - - - - WNW 35 54 19 29 1011.5 1011.4 3.4
29/03:00am 10.6 - - - - W 43 65 23 35 1011.3 1011.2 3.4
29/02:30am 10.2 - - - - W 43 65 23 35 1011.3 1011.2 3.4
29/02:00am 11.6 - - - - WNW 37 61 20 33 1011.1 1011.0 3.2
29/01:41am 12.0 - - - - W 35 54 19 29 1010.7 1010.7 3.0
29/01:30am 12.8 - - - - WNW 37 50 20 27 1010.5 1010.5 3.0
29/01:00am 12.6 - - - - WNW 35 50 19 27 1010.5 1010.5 3.0
29/12:55am 12.6 - - - - WNW 37 56 20 30 1010.5 1010.5 3.0
29/12:30am 12.6 - - - - WNW 33 50 18 27 1010.6 1010.6 3.0
29/12:01am 12.2 - - - - WNW 35 54 19 29 1010.6 1010.6 3.0
29/12:00am 12.2 - - - - WNW 37 54 20 29 1010.6 1010.6 3.0
 
Date/Time
EST
Temp
°C
App
Temp
°C
Dew
Point
Rel
Hum
%
Delta-T
°C
Wind Press
QNH
hPa
Press
MSL
hPa
Rain
since 9 am
mm
Dir
 
Spd
km/h
Gust
km/h
Spd
kts
Gust
kts
28/11:30pm 12.4 - - - - WNW 32 44 17 24 1010.7 1010.7 2.8
28/11:00pm 12.2 - - - - WNW 33 44 18 24 1010.5 1010.5 2.8
28/10:30pm 11.5 - - - - WNW 33 48 18 26 1010.5 1010.5 2.8
28/10:00pm 12.2 - - - - WNW 33 46 18 25 1010.4 1010.4 2.4
28/09:30pm 12.2 - - - - WNW 32 46 17 25 1010.5 1010.5 1.8
28/09:00pm 12.7 - - - - WNW 26 37 14 20 1010.3 1010.3 1.6
28/08:30pm 13.0 - - - - WNW 30 43 16 23 1010.3 1010.3 1.6
28/08:01pm 12.9 - - - - WNW 32 52 17 28 1010.0 1010.0 1.6
28/08:00pm 12.9 - - - - WNW 33 52 18 28 1010.0 1010.0 1.6
28/07:30pm 13.0 - - - - WNW 41 67 22 36 1009.6 1009.6 1.4
28/07:21pm 15.0 - - - - NW 37 67 20 36 1009.9 1009.9 0.4
28/07:00pm 15.2 - - - - NW 41 52 22 28 1009.3 1009.3 0.0
28/06:30pm 15.1 - - - - NNW 39 44 21 24 1009.3 1009.3 0.0
28/06:00pm 15.3 - - - - NW 39 48 21 26 1009.5 1009.5 0.0
28/05:30pm 15.4 - - - - NW 44 56 24 30 1009.5 1009.5 0.0
28/05:00pm 15.3 - - - - NNW 43 52 23 28 1009.4 1009.4 0.0
28/04:30pm 15.1 - - - - NNW 39 46 21 25 1009.4 1009.4 0.0
28/04:00pm 15.2 - - - - NNW 41 50 22 27 1009.6 1009.6 0.0
28/03:30pm 15.3 - - - - NNW 44 52 24 28 1009.7 1009.7 0.0
28/03:00pm 15.3 - - - - NNW 43 50 23 27 1010.2 1010.2 0.0
28/02:30pm 15.3 - - - - NNW 43 52 23 28 1010.5 1010.5 0.0
28/02:00pm 15.3 - - - - NNW 44 54 24 29 1010.6 1010.6 0.0
28/01:30pm 15.4 - - - - NNW 43 48 23 26 1011.0 1010.9 0.0
28/01:00pm 15.2 - - - - NNW 39 48 21 26 1011.5 1011.4 0.0
28/12:30pm 14.9 - - - - NNW 37 43 20 23 1011.9 1011.8 0.0
28/12:00pm 15.4 - - - - NNW 39 48 21 26 1012.3 1012.2 0.0
28/11:30am 15.3 - - - - NNW 37 43 20 23 1013.0 1012.9 0.0
28/11:00am 15.0 - - - - NNW 37 43 20 23 1013.3 1013.2 0.0
28/10:30am 14.7 - - - - N 39 46 21 25 1013.8 1013.7 0.0
28/10:00am 14.7 - - - - NNW 35 41 19 22 1014.1 1014.1 0.0
28/09:30am 14.9 - - - - NNW 39 46 21 25 1014.2 1014.2 0.0
28/09:00am 14.4 - - - - NW 37 44 20 24 1014.4 1014.4 1.4
28/08:30am 14.1 - - - - NW 37 46 20 25 1014.3 1014.3 1.4
28/08:00am 14.2 - - - - NW 43 57 23 31 1014.7 1014.7 1.2
28/07:30am 14.6 - - - - NNW 35 43 19 23 1014.2 1014.2 0.0
28/07:00am 14.6 - - - - NNW 35 41 19 22 1014.1 1014.1 0.0
28/06:30am 14.6 - - - - NNW 33 39 18 21 1014.2 1014.2 0.0
28/06:00am 14.6 - - - - NNW 33 39 18 21 1014.2 1014.2 0.0
28/05:30am 14.6 - - - - NNW 30 35 16 19 1014.0 1014.0 0.0
28/05:00am 15.0 - - - - NNW 32 46 17 25 1014.3 1014.3 0.0
28/04:30am 15.0 - - - - NW 33 44 18 24 1014.5 1014.5 0.0
28/04:00am 14.8 - - - - NNW 33 39 18 21 1014.7 1014.7 0.0
28/03:30am 14.9 - - - - NNW 35 43 19 23 1014.7 1014.7 0.0
28/03:00am 14.8 - - - - NNW 33 39 18 21 1014.9 1014.9 0.0
28/02:30am 14.6 - - - - NNW 28 33 15 18 1015.2 1015.2 0.0
28/02:00am 14.5 - - - - NNW 28 32 15 17 1015.4 1015.4 0.0
28/01:30am 14.5 - - - - NNW 33 37 18 20 1015.3 1015.3 0.0
28/01:00am 14.4 - - - - NNW 35 41 19 22 1015.3 1015.3 0.0
28/12:30am 14.4 - - - - NNW 33 39 18 21 1015.4 1015.4 0.0

Other Formats:

Comma delimited format used in spreadsheet applications
http://www.bom.gov.au/fwo/IDT60801/IDT60801.95985.axf

JavaScript Object Notation format (JSON) in row-major order
http://www.bom.gov.au/fwo/IDT60801/IDT60801.95985.json